sensor_id;sensor_type;location;lat;lon;timestamp;P1;P2;P0
72918;PMS7003;68407;55.694;26.994;2023-08-07T00:00:25;17;15.3;11.8
72918;PMS7003;68407;55.694;26.994;2023-08-07T00:05:25;15.6;14.4;10.6
72918;PMS7003;68407;55.694;26.994;2023-08-07T00:11:06;16.8;15.2;10.6
72918;PMS7003;68407;55.694;26.994;2023-08-07T00:15:55;17;15;10.8
72918;PMS7003;68407;55.694;26.994;2023-08-07T00:20:55;16.6;15.6;12.2
72918;PMS7003;68407;55.694;26.994;2023-08-07T00:26:05;16.4;14;10.4
72918;PMS7003;68407;55.694;26.994;2023-08-07T00:30:49;16.2;14.4;11.6
72918;PMS7003;68407;55.694;26.994;2023-08-07T00:35:39;15.8;14.2;10.8
72918;PMS7003;68407;55.694;26.994;2023-08-07T00:40:39;15.2;13.8;10.8
72918;PMS7003;68407;55.694;26.994;2023-08-07T00:46:05;17;15;11.6
72918;PMS7003;68407;55.694;26.994;2023-08-07T00:51:05;16.4;14.4;11
72918;PMS7003;68407;55.694;26.994;2023-08-07T00:56:05;15.6;13.8;10.2
72918;PMS7003;68407;55.694;26.994;2023-08-07T01:01:05;16.8;14.8;12
72918;PMS7003;68407;55.694;26.994;2023-08-07T01:05:55;17.4;15.6;11
72918;PMS7003;68407;55.694;26.994;2023-08-07T01:11:07;16.4;15.2;11.8
72918;PMS7003;68407;55.694;26.994;2023-08-07T01:15:29;15.8;14.2;10.2
72918;PMS7003;68407;55.694;26.994;2023-08-07T01:21:05;16.8;15.6;11.6
72918;PMS7003;68407;55.694;26.994;2023-08-07T01:25:49;17.8;15.6;12.4
72918;PMS7003;68407;55.694;26.994;2023-08-07T01:30:40;16.4;14.4;11
72918;PMS7003;68407;55.694;26.994;2023-08-07T01:35:46;16.8;15.2;11
72918;PMS7003;68407;55.694;26.994;2023-08-07T01:40:25;17.2;15.6;12
72918;PMS7003;68407;55.694;26.994;2023-08-07T01:45:31;16.6;15.8;11.8
72918;PMS7003;68407;55.694;26.994;2023-08-07T01:50:26;16.4;15;10.6
72918;PMS7003;68407;55.694;26.994;2023-08-07T01:55:25;17.8;15.2;12
72918;PMS7003;68407;55.694;26.994;2023-08-07T02:00:47;15.8;14.3;10.8
72918;PMS7003;68407;55.694;26.994;2023-08-07T02:06:05;16;15;11.4
72918;PMS7003;68407;55.694;26.994;2023-08-07T02:10:45;17.2;14.4;10.8
72918;PMS7003;68407;55.694;26.994;2023-08-07T02:15:25;16.8;15.4;12
72918;PMS7003;68407;55.694;26.994;2023-08-07T02:21:05;17.6;16.4;11.2
72918;PMS7003;68407;55.694;26.994;2023-08-07T02:25:55;16.8;14.2;10.6
72918;PMS7003;68407;55.694;26.994;2023-08-07T02:30:25;16;14.2;10.4
72918;PMS7003;68407;55.694;26.994;2023-08-07T02:35:55;16.6;14.2;10.6
72918;PMS7003;68407;55.694;26.994;2023-08-07T02:41:05;19.6;15.6;12
72918;PMS7003;68407;55.694;26.994;2023-08-07T02:45:25;15.4;13.2;10.2
72918;PMS7003;68407;55.694;26.994;2023-08-07T02:50:45;15.2;14.8;10.8
72918;PMS7003;68407;55.694;26.994;2023-08-07T02:56:05;17.2;15;11
72918;PMS7003;68407;55.694;26.994;2023-08-07T03:00:25;16.5;14.5;10.8
72918;PMS7003;68407;55.694;26.994;2023-08-07T03:05:33;15.6;14.4;11.2
72918;PMS7003;68407;55.694;26.994;2023-08-07T03:10:31;18.8;16.8;11.6
72918;PMS7003;68407;55.694;26.994;2023-08-07T03:15:59;15.2;14.4;11
72918;PMS7003;68407;55.694;26.994;2023-08-07T03:20:35;16;15.4;10.4
72918;PMS7003;68407;55.694;26.994;2023-08-07T03:25:25;18.4;15.4;11
72918;PMS7003;68407;55.694;26.994;2023-08-07T03:31:05;16.2;15;11.2
72918;PMS7003;68407;55.694;26.994;2023-08-07T03:35:41;16;15.2;11.8
72918;PMS7003;68407;55.694;26.994;2023-08-07T03:40:37;16.6;14.8;11.2
72918;PMS7003;68407;55.694;26.994;2023-08-07T03:45:45;17.6;16.6;11.4
72918;PMS7003;68407;55.694;26.994;2023-08-07T03:51:06;16.2;14.4;10.6
72918;PMS7003;68407;55.694;26.994;2023-08-07T03:55:31;16.6;14.8;10.4
72918;PMS7003;68407;55.694;26.994;2023-08-07T04:00:39;19.3;15.8;11.8
72918;PMS7003;68407;55.694;26.994;2023-08-07T04:05:56;17.4;15.8;11.2
72918;PMS7003;68407;55.694;26.994;2023-08-07T04:10:57;14.8;13.8;11
72918;PMS7003;68407;55.694;26.994;2023-08-07T04:16:04;16.4;15.6;12
72918;PMS7003;68407;55.694;26.994;2023-08-07T04:20:25;17.2;16;10.8
72918;PMS7003;68407;55.694;26.994;2023-08-07T04:25:55;18.2;16.8;11.6
72918;PMS7003;68407;55.694;26.994;2023-08-07T04:30:31;18.6;17;12.4
72918;PMS7003;68407;55.694;26.994;2023-08-07T04:35:34;16.8;15.4;11.4
72918;PMS7003;68407;55.694;26.994;2023-08-07T04:40:55;19.4;17.2;12
72918;PMS7003;68407;55.694;26.994;2023-08-07T04:45:33;16;14;11
72918;PMS7003;68407;55.694;26.994;2023-08-07T04:51:03;18;15.4;11.2
72918;PMS7003;68407;55.694;26.994;2023-08-07T04:55:55;17.8;16.6;12.4
72918;PMS7003;68407;55.694;26.994;2023-08-07T05:01:02;17.8;15.4;11
72918;PMS7003;68407;55.694;26.994;2023-08-07T05:05:25;17.5;15.8;11.5
72918;PMS7003;68407;55.694;26.994;2023-08-07T05:11:00;15.8;14.8;11.2
72918;PMS7003;68407;55.694;26.994;2023-08-07T05:16:06;18.4;16;11.8
72918;PMS7003;68407;55.694;26.994;2023-08-07T05:21:05;17;15;11.2
72918;PMS7003;68407;55.694;26.994;2023-08-07T05:26:05;16.8;14.4;10.4
72918;PMS7003;68407;55.694;26.994;2023-08-07T05:31:06;16;14.2;10.6
72918;PMS7003;68407;55.694;26.994;2023-08-07T05:35:31;16.2;14.8;11.2
72918;PMS7003;68407;55.694;26.994;2023-08-07T05:40:26;16.6;15.6;10.6
72918;PMS7003;68407;55.694;26.994;2023-08-07T05:45:44;15.2;14.4;10.8
72918;PMS7003;68407;55.694;26.994;2023-08-07T05:50:48;17.8;16;11.6
72918;PMS7003;68407;55.694;26.994;2023-08-07T05:55:32;16.4;14.6;10.4
72918;PMS7003;68407;55.694;26.994;2023-08-07T06:00:56;17.6;15.2;11.2
72918;PMS7003;68407;55.694;26.994;2023-08-07T06:05:31;16.5;15.3;11
72918;PMS7003;68407;55.694;26.994;2023-08-07T06:10:32;17.8;14.2;10.8
72918;PMS7003;68407;55.694;26.994;2023-08-07T06:15:40;17;15.6;11.4
72918;PMS7003;68407;55.694;26.994;2023-08-07T06:20:33;17.2;15.4;11
72918;PMS7003;68407;55.694;26.994;2023-08-07T06:25:26;17;15.8;11.4
72918;PMS7003;68407;55.694;26.994;2023-08-07T06:31:04;14.8;14.2;11
72918;PMS7003;68407;55.694;26.994;2023-08-07T06:35:46;16.8;13.6;10.8
72918;PMS7003;68407;55.694;26.994;2023-08-07T06:40:24;16.8;15.6;11.4
72918;PMS7003;68407;55.694;26.994;2023-08-07T06:45:48;15.4;13.8;10.2
72918;PMS7003;68407;55.694;26.994;2023-08-07T06:50:24;16.4;15;11.2
72918;PMS7003;68407;55.694;26.994;2023-08-07T06:55:24;16.2;14;10
72918;PMS7003;68407;55.694;26.994;2023-08-07T07:00:34;16.4;14.6;10.4
72918;PMS7003;68407;55.694;26.994;2023-08-07T07:06:06;16.5;14.5;10
72918;PMS7003;68407;55.694;26.994;2023-08-07T07:10:50;16.4;15;11.4
72918;PMS7003;68407;55.694;26.994;2023-08-07T07:15:32;15;14.4;10.6
72918;PMS7003;68407;55.694;26.994;2023-08-07T07:21:04;15;13.8;10.8
72918;PMS7003;68407;55.694;26.994;2023-08-07T07:25:38;15.8;14.4;10.2
72918;PMS7003;68407;55.694;26.994;2023-08-07T07:30:40;15.2;13.8;10.8
72918;PMS7003;68407;55.694;26.994;2023-08-07T07:35:37;15;12.6;9.8
72918;PMS7003;68407;55.694;26.994;2023-08-07T07:40:54;25.2;21.2;14.2
72918;PMS7003;68407;55.694;26.994;2023-08-07T07:45:30;14.6;12.2;9.4
72918;PMS7003;68407;55.694;26.994;2023-08-07T07:50:26;13.6;12.8;9.8
72918;PMS7003;68407;55.694;26.994;2023-08-07T07:56:06;14.8;13.6;9.8
72918;PMS7003;68407;55.694;26.994;2023-08-07T08:00:56;16.2;13.4;10.4
72918;PMS7003;68407;55.694;26.994;2023-08-07T08:05:40;13.8;11.5;9
72918;PMS7003;68407;55.694;26.994;2023-08-07T08:10:24;13.2;12;8.8
72918;PMS7003;68407;55.694;26.994;2023-08-07T08:16:04;14;12.6;9.2
72918;PMS7003;68407;55.694;26.994;2023-08-07T08:20:34;16.2;13.4;9.6
72918;PMS7003;68407;55.694;26.994;2023-08-07T08:25:32;14.8;13.4;9.6
72918;PMS7003;68407;55.694;26.994;2023-08-07T08:30:54;13.6;11.8;8.8
72918;PMS7003;68407;55.694;26.994;2023-08-07T08:35:54;14.6;12.2;9.6
72918;PMS7003;68407;55.694;26.994;2023-08-07T08:41:04;13.4;12.2;10
72918;PMS7003;68407;55.694;26.994;2023-08-07T08:45:38;14.8;12;9.4
72918;PMS7003;68407;55.694;26.994;2023-08-07T08:50:30;14.8;13.4;10.2
72918;PMS7003;68407;55.694;26.994;2023-08-07T08:55:30;15.2;13.6;10
72918;PMS7003;68407;55.694;26.994;2023-08-07T09:00:40;14;12.6;9.8
72918;PMS7003;68407;55.694;26.994;2023-08-07T09:05:54;12.3;10.3;8.5
72918;PMS7003;68407;55.694;26.994;2023-08-07T09:10:54;13.8;13.2;10.6
72918;PMS7003;68407;55.694;26.994;2023-08-07T09:16:02;16.2;13.4;10
72918;PMS7003;68407;55.694;26.994;2023-08-07T09:20:54;14.6;12.8;9.4
72918;PMS7003;68407;55.694;26.994;2023-08-07T09:25:26;13.8;13.2;10
72918;PMS7003;68407;55.694;26.994;2023-08-07T09:30:54;13.4;12.4;9.4
72918;PMS7003;68407;55.694;26.994;2023-08-07T09:36:02;14.4;12.2;9.4
72918;PMS7003;68407;55.694;26.994;2023-08-07T09:40:48;14;13.6;10.2
72918;PMS7003;68407;55.694;26.994;2023-08-07T09:46:01;13.4;12.6;8.6
72918;PMS7003;68407;55.694;26.994;2023-08-07T09:51:02;13.4;12.6;10.2
72918;PMS7003;68407;55.694;26.994;2023-08-07T09:55:24;14.8;12.6;10.2
72918;PMS7003;68407;55.694;26.994;2023-08-07T10:00:26;13.8;12.4;9.2
72918;PMS7003;68407;55.694;26.994;2023-08-07T10:05:40;14.6;12.6;10.4
72918;PMS7003;68407;55.694;26.994;2023-08-07T10:10:48;15.3;14;10.5
72918;PMS7003;68407;55.694;26.994;2023-08-07T10:15:48;12.6;12;9
72918;PMS7003;68407;55.694;26.994;2023-08-07T10:20:54;13;12.4;9.8
72918;PMS7003;68407;55.694;26.994;2023-08-07T10:25:44;12.8;11.8;8.6
72918;PMS7003;68407;55.694;26.994;2023-08-07T10:30:24;12.8;11.8;9.6
72918;PMS7003;68407;55.694;26.994;2023-08-07T10:35:24;13.6;12.4;9.8
72918;PMS7003;68407;55.694;26.994;2023-08-07T10:40:24;14.4;13.4;9.8
72918;PMS7003;68407;55.694;26.994;2023-08-07T10:45:24;12.8;12;9.6
72918;PMS7003;68407;55.694;26.994;2023-08-07T10:50:49;12.4;11.8;9.4
72918;PMS7003;68407;55.694;26.994;2023-08-07T10:56:02;14.2;12.8;10.2
72918;PMS7003;68407;55.694;26.994;2023-08-07T11:00:25;13.8;12.4;9.4
72918;PMS7003;68407;55.694;26.994;2023-08-07T11:05:30;12.8;12.6;9.6
72918;PMS7003;68407;55.694;26.994;2023-08-07T11:10:34;12.8;12.8;10
72918;PMS7003;68407;55.694;26.994;2023-08-07T11:15:38;12.6;11.4;8.8
72918;PMS7003;68407;55.694;26.994;2023-08-07T11:20:38;19;16.2;11.8
72918;PMS7003;68407;55.694;26.994;2023-08-07T11:25:52;14;13.4;10.4
72918;PMS7003;68407;55.694;26.994;2023-08-07T11:31:04;14.8;13.8;10.4
72918;PMS7003;68407;55.694;26.994;2023-08-07T11:35:30;16.4;14.8;10.6
72918;PMS7003;68407;55.694;26.994;2023-08-07T11:40:24;12.8;12;9.6
72918;PMS7003;68407;55.694;26.994;2023-08-07T11:46:03;14.2;13;9.8
72918;PMS7003;68407;55.694;26.994;2023-08-07T11:50:28;13.6;12.2;9.8
72918;PMS7003;68407;55.694;26.994;2023-08-07T11:55:45;12.4;11.2;8.8
72918;PMS7003;68407;55.694;26.994;2023-08-07T12:00:44;13.4;12.2;9.4
72918;PMS7003;68407;55.694;26.994;2023-08-07T12:05:55;11.6;11.4;9
72918;PMS7003;68407;55.694;26.994;2023-08-07T12:10:32;12;11.3;8.8
72918;PMS7003;68407;55.694;26.994;2023-08-07T12:15:24;12.8;11.2;7.8
72918;PMS7003;68407;55.694;26.994;2023-08-07T12:21:05;13.8;11.6;8.4
72918;PMS7003;68407;55.694;26.994;2023-08-07T12:25:36;13.2;11.4;8.2
72918;PMS7003;68407;55.694;26.994;2023-08-07T17:10:38;9.5;7.8;5.8
72918;PMS7003;68407;55.694;26.994;2023-08-07T17:16:04;9;7.8;6
72918;PMS7003;68407;55.694;26.994;2023-08-07T17:20:46;7.6;7;5.8
72918;PMS7003;68407;55.694;26.994;2023-08-07T17:25:54;8;7;5.6
72918;PMS7003;68407;55.694;26.994;2023-08-07T17:31:04;8.4;7.6;5.8
72918;PMS7003;68407;55.694;26.994;2023-08-07T17:35:54;7.6;6.4;4.6
72918;PMS7003;68407;55.694;26.994;2023-08-07T17:40:44;7;5.3;4.8
72918;PMS7003;68407;55.694;26.994;2023-08-07T17:45:48;6.8;5.8;4.6
72918;PMS7003;68407;55.694;26.994;2023-08-07T17:51:02;9.6;8.8;6.6
72918;PMS7003;68407;55.694;26.994;2023-08-07T17:56:04;9.6;9.6;7.4
72918;PMS7003;68407;55.694;26.994;2023-08-07T18:01:04;8;7.4;5.6
72918;PMS7003;68407;55.694;26.994;2023-08-07T18:06:04;8.6;7.8;6
72918;PMS7003;68407;55.694;26.994;2023-08-07T18:10:54;8.4;7.4;5.4
72918;PMS7003;68407;55.694;26.994;2023-08-07T18:15:24;5.6;5;3.8
72918;PMS7003;68407;55.694;26.994;2023-08-07T18:20:32;6.8;5.4;4.4
72918;PMS7003;68407;55.694;26.994;2023-08-07T18:26:04;5.8;4.6;3.6
72918;PMS7003;68407;55.694;26.994;2023-08-07T18:30:48;4.6;3.6;2.8
72918;PMS7003;68407;55.694;26.994;2023-08-07T18:35:32;5;3.4;2.8
72918;PMS7003;68407;55.694;26.994;2023-08-07T18:41:04;3.3;3;2.3
72918;PMS7003;68407;55.694;26.994;2023-08-07T18:45:24;4.4;3.4;2.6
72918;PMS7003;68407;55.694;26.994;2023-08-07T18:50:30;3.4;2.6;2
72918;PMS7003;68407;55.694;26.994;2023-08-07T18:55:24;5.4;4.6;3.8
72918;PMS7003;68407;55.694;26.994;2023-08-07T19:01:04;5.4;4.6;3.8
72918;PMS7003;68407;55.694;26.994;2023-08-07T19:05:48;5.2;3.8;2.8
72918;PMS7003;68407;55.694;26.994;2023-08-07T19:10:54;5.6;5;4
72918;PMS7003;68407;55.694;26.994;2023-08-07T19:15:44;6.4;5.2;4
72918;PMS7003;68407;55.694;26.994;2023-08-07T19:20:30;4.6;3.8;3
72918;PMS7003;68407;55.694;26.994;2023-08-07T19:25:24;4.4;4.2;3.4
72918;PMS7003;68407;55.694;26.994;2023-08-07T19:30:38;6;5;3.8
72918;PMS7003;68407;55.694;26.994;2023-08-07T19:36:04;5.4;4.6;3.6
72918;PMS7003;68407;55.694;26.994;2023-08-07T19:40:44;8.8;6.8;4.8
72918;PMS7003;68407;55.694;26.994;2023-08-07T19:46:04;6.8;6.5;5.3
72918;PMS7003;68407;55.694;26.994;2023-08-07T19:50:44;7.4;6.4;4.2
72918;PMS7003;68407;55.694;26.994;2023-08-07T19:55:30;7.2;6.2;4.6
72918;PMS7003;68407;55.694;26.994;2023-08-07T20:00:48;5.8;5.2;3.8
72918;PMS7003;68407;55.694;26.994;2023-08-07T20:05:46;6.6;5.8;4.4
72918;PMS7003;68407;55.694;26.994;2023-08-07T20:10:38;5.8;5.6;4.4
72918;PMS7003;68407;55.694;26.994;2023-08-07T20:15:26;8;6.8;5.4
72918;PMS7003;68407;55.694;26.994;2023-08-07T20:20:58;10.8;10;6.8
72918;PMS7003;68407;55.694;26.994;2023-08-07T20:25:30;6.6;5.8;4.2
72918;PMS7003;68407;55.694;26.994;2023-08-07T20:30:30;6.6;5.6;4.4
72918;PMS7003;68407;55.694;26.994;2023-08-07T20:36:04;8.6;6.6;5.4
72918;PMS7003;68407;55.694;26.994;2023-08-07T20:40:54;4.6;4.4;3.2
72918;PMS7003;68407;55.694;26.994;2023-08-07T20:45:38;4.6;3.8;3
72918;PMS7003;68407;55.694;26.994;2023-08-07T20:50:30;6.4;5;3.8
72918;PMS7003;68407;55.694;26.994;2023-08-07T20:56:04;6;4.8;3.6
72918;PMS7003;68407;55.694;26.994;2023-08-07T21:00:30;5.2;3.4;2.8
72918;PMS7003;68407;55.694;26.994;2023-08-07T21:05:32;1.3;1.3;1
72918;PMS7003;68407;55.694;26.994;2023-08-07T21:10:54;1.2;0.4;0.2
72918;PMS7003;68407;55.694;26.994;2023-08-07T21:15:54;1.8;1.2;1.2
72918;PMS7003;68407;55.694;26.994;2023-08-07T21:21:04;0.6;0.2;0
72918;PMS7003;68407;55.694;26.994;2023-08-07T21:25:44;0.6;0.6;0.4
72918;PMS7003;68407;55.694;26.994;2023-08-07T21:30:38;0.6;0.2;0
72918;PMS7003;68407;55.694;26.994;2023-08-07T21:35:24;0.2;0;0
72918;PMS7003;68407;55.694;26.994;2023-08-07T21:41:04;0.4;0.2;0
72918;PMS7003;68407;55.694;26.994;2023-08-07T21:45:54;0.4;0;0
72918;PMS7003;68407;55.694;26.994;2023-08-07T21:50:52;0;0;0
72918;PMS7003;68407;55.694;26.994;2023-08-07T21:56:04;0;0;0
72918;PMS7003;68407;55.694;26.994;2023-08-07T22:00:46;0;0;0
72918;PMS7003;68407;55.694;26.994;2023-08-07T22:05:48;0;0;0
72918;PMS7003;68407;55.694;26.994;2023-08-07T22:10:38;0;0;0
72918;PMS7003;68407;55.694;26.994;2023-08-07T22:16:04;0.2;0;0
72918;PMS7003;68407;55.694;26.994;2023-08-07T22:21:04;0;0;0
72918;PMS7003;68407;55.694;26.994;2023-08-07T22:25:54;0;0;0
72918;PMS7003;68407;55.694;26.994;2023-08-07T22:31:04;0;0;0
72918;PMS7003;68407;55.694;26.994;2023-08-07T22:35:54;0;0;0
72918;PMS7003;68407;55.694;26.994;2023-08-07T22:40:24;0;0;0
72918;PMS7003;68407;55.694;26.994;2023-08-07T22:45:54;0.2;0;0
72918;PMS7003;68407;55.694;26.994;2023-08-07T22:51:04;0;0;0
72918;PMS7003;68407;55.694;26.994;2023-08-07T22:55:48;0;0;0
72918;PMS7003;68407;55.694;26.994;2023-08-07T23:00:38;0;0;0
72918;PMS7003;68407;55.694;26.994;2023-08-07T23:06:04;0;0;0
72918;PMS7003;68407;55.694;26.994;2023-08-07T23:10:24;0;0;0
72918;PMS7003;68407;55.694;26.994;2023-08-07T23:15:38;0;0;0
72918;PMS7003;68407;55.694;26.994;2023-08-07T23:20:40;0;0;0
72918;PMS7003;68407;55.694;26.994;2023-08-07T23:25:48;0;0;0
72918;PMS7003;68407;55.694;26.994;2023-08-07T23:30:48;0;0;0
72918;PMS7003;68407;55.694;26.994;2023-08-07T23:35:54;0.2;0;0
72918;PMS7003;68407;55.694;26.994;2023-08-07T23:40:44;0;0;0
72918;PMS7003;68407;55.694;26.994;2023-08-07T23:45:54;0;0;0
72918;PMS7003;68407;55.694;26.994;2023-08-07T23:50:30;0;0;0
72918;PMS7003;68407;55.694;26.994;2023-08-07T23:55:30;0;0;0
